sensor_id;sensor_type;location;lat;lon;timestamp;P1;durP1;ratioP1;P2;durP2;ratioP2
15381;SDS011;7789;51.364;12.358;2022-11-03T00:00:57;6.63;;;2.27;;
15381;SDS011;7789;51.364;12.358;2022-11-03T00:06:03;8.27;;;2.60;;
15381;SDS011;7789;51.364;12.358;2022-11-03T00:11:07;11.87;;;2.60;;
15381;SDS011;7789;51.364;12.358;2022-11-03T00:16:11;10.43;;;3.00;;
15381;SDS011;7789;51.364;12.358;2022-11-03T00:21:16;7.83;;;3.00;;
15381;SDS011;7789;51.364;12.358;2022-11-03T00:26:19;4.90;;;2.20;;
15381;SDS011;7789;51.364;12.358;2022-11-03T00:31:24;6.47;;;2.43;;
15381;SDS011;7789;51.364;12.358;2022-11-03T00:36:30;7.43;;;2.87;;
15381;SDS011;7789;51.364;12.358;2022-11-03T00:41:35;7.50;;;2.70;;
15381;SDS011;7789;51.364;12.358;2022-11-03T00:46:39;4.93;;;2.40;;
15381;SDS011;7789;51.364;12.358;2022-11-03T00:51:44;8.90;;;3.00;;
15381;SDS011;7789;51.364;12.358;2022-11-03T00:56:46;6.53;;;2.40;;
15381;SDS011;7789;51.364;12.358;2022-11-03T01:01:49;6.90;;;2.93;;
15381;SDS011;7789;51.364;12.358;2022-11-03T01:06:55;6.60;;;2.53;;
15381;SDS011;7789;51.364;12.358;2022-11-03T01:12:01;6.20;;;2.83;;
15381;SDS011;7789;51.364;12.358;2022-11-03T01:17:08;6.40;;;2.37;;
15381;SDS011;7789;51.364;12.358;2022-11-03T01:22:14;8.00;;;2.50;;
15381;SDS011;7789;51.364;12.358;2022-11-03T01:27:19;6.37;;;2.33;;
15381;SDS011;7789;51.364;12.358;2022-11-03T01:32:22;9.07;;;2.87;;
15381;SDS011;7789;51.364;12.358;2022-11-03T01:37:27;9.33;;;2.97;;
15381;SDS011;7789;51.364;12.358;2022-11-03T01:42:31;7.03;;;2.43;;
15381;SDS011;7789;51.364;12.358;2022-11-03T01:47:34;7.63;;;2.70;;
15381;SDS011;7789;51.364;12.358;2022-11-03T01:52:40;9.40;;;2.80;;
15381;SDS011;7789;51.364;12.358;2022-11-03T01:57:46;9.57;;;2.80;;
15381;SDS011;7789;51.364;12.358;2022-11-03T02:02:57;6.63;;;2.50;;
15381;SDS011;7789;51.364;12.358;2022-11-03T02:08:04;9.93;;;2.60;;
15381;SDS011;7789;51.364;12.358;2022-11-03T02:13:15;10.70;;;2.80;;
15381;SDS011;7789;51.364;12.358;2022-11-03T02:18:22;10.63;;;2.70;;
15381;SDS011;7789;51.364;12.358;2022-11-03T02:23:29;10.97;;;2.60;;
15381;SDS011;7789;51.364;12.358;2022-11-03T02:28:39;7.00;;;2.87;;
15381;SDS011;7789;51.364;12.358;2022-11-03T02:33:46;8.70;;;2.47;;
15381;SDS011;7789;51.364;12.358;2022-11-03T02:38:56;12.07;;;2.43;;
15381;SDS011;7789;51.364;12.358;2022-11-03T02:44:06;7.17;;;2.33;;
15381;SDS011;7789;51.364;12.358;2022-11-03T02:49:13;8.87;;;2.60;;
15381;SDS011;7789;51.364;12.358;2022-11-03T02:54:17;12.00;;;2.60;;
15381;SDS011;7789;51.364;12.358;2022-11-03T02:59:26;7.20;;;2.47;;
15381;SDS011;7789;51.364;12.358;2022-11-03T03:04:38;5.83;;;2.53;;
15381;SDS011;7789;51.364;12.358;2022-11-03T03:09:44;8.77;;;2.17;;
15381;SDS011;7789;51.364;12.358;2022-11-03T03:14:56;6.37;;;2.23;;
15381;SDS011;7789;51.364;12.358;2022-11-03T03:20:03;7.43;;;2.33;;
15381;SDS011;7789;51.364;12.358;2022-11-03T03:25:10;8.63;;;2.50;;
15381;SDS011;7789;51.364;12.358;2022-11-03T03:30:18;6.13;;;2.23;;
15381;SDS011;7789;51.364;12.358;2022-11-03T03:35:22;7.60;;;1.93;;
15381;SDS011;7789;51.364;12.358;2022-11-03T03:40:29;8.27;;;2.20;;
15381;SDS011;7789;51.364;12.358;2022-11-03T03:45:37;4.73;;;1.90;;
15381;SDS011;7789;51.364;12.358;2022-11-03T03:50:40;4.87;;;2.20;;
15381;SDS011;7789;51.364;12.358;2022-11-03T03:55:47;4.77;;;1.80;;
15381;SDS011;7789;51.364;12.358;2022-11-03T04:00:53;4.70;;;1.80;;
15381;SDS011;7789;51.364;12.358;2022-11-03T04:05:56;6.77;;;2.07;;
15381;SDS011;7789;51.364;12.358;2022-11-03T04:10:59;9.03;;;2.23;;
15381;SDS011;7789;51.364;12.358;2022-11-03T04:16:21;4.10;;;1.80;;
15381;SDS011;7789;51.364;12.358;2022-11-03T04:21:42;7.00;;;2.03;;
15381;SDS011;7789;51.364;12.358;2022-11-03T04:27:04;7.03;;;1.83;;
15381;SDS011;7789;51.364;12.358;2022-11-03T04:32:21;6.40;;;1.80;;
15381;SDS011;7789;51.364;12.358;2022-11-03T04:37:25;10.17;;;2.47;;
15381;SDS011;7789;51.364;12.358;2022-11-03T04:42:30;5.27;;;1.90;;
15381;SDS011;7789;51.364;12.358;2022-11-03T04:47:36;6.10;;;1.97;;
15381;SDS011;7789;51.364;12.358;2022-11-03T04:52:39;8.50;;;3.17;;
15381;SDS011;7789;51.364;12.358;2022-11-03T04:57:42;6.70;;;2.03;;
15381;SDS011;7789;51.364;12.358;2022-11-03T05:02:47;10.23;;;1.90;;
15381;SDS011;7789;51.364;12.358;2022-11-03T05:07:57;5.30;;;1.70;;
15381;SDS011;7789;51.364;12.358;2022-11-03T05:13:00;6.40;;;1.80;;
15381;SDS011;7789;51.364;12.358;2022-11-03T05:18:12;8.90;;;1.93;;
15381;SDS011;7789;51.364;12.358;2022-11-03T05:23:19;5.50;;;1.67;;
15381;SDS011;7789;51.364;12.358;2022-11-03T05:28:23;8.27;;;2.20;;
15381;SDS011;7789;51.364;12.358;2022-11-03T05:33:30;6.97;;;1.60;;
15381;SDS011;7789;51.364;12.358;2022-11-03T05:38:36;5.97;;;1.80;;
15381;SDS011;7789;51.364;12.358;2022-11-03T05:43:38;7.50;;;2.20;;
15381;SDS011;7789;51.364;12.358;2022-11-03T05:48:43;4.97;;;1.63;;
15381;SDS011;7789;51.364;12.358;2022-11-03T05:53:46;6.10;;;2.00;;
15381;SDS011;7789;51.364;12.358;2022-11-03T05:58:52;4.13;;;2.13;;
15381;SDS011;7789;51.364;12.358;2022-11-03T06:03:59;7.83;;;2.27;;
15381;SDS011;7789;51.364;12.358;2022-11-03T06:09:08;7.93;;;2.20;;
15381;SDS011;7789;51.364;12.358;2022-11-03T06:14:17;7.30;;;2.47;;
15381;SDS011;7789;51.364;12.358;2022-11-03T06:19:27;6.97;;;2.00;;
15381;SDS011;7789;51.364;12.358;2022-11-03T06:24:32;9.30;;;2.20;;
15381;SDS011;7789;51.364;12.358;2022-11-03T06:29:36;4.77;;;1.60;;
15381;SDS011;7789;51.364;12.358;2022-11-03T06:34:42;7.47;;;2.33;;
15381;SDS011;7789;51.364;12.358;2022-11-03T06:39:47;4.73;;;2.20;;
15381;SDS011;7789;51.364;12.358;2022-11-03T06:44:51;6.70;;;2.23;;
15381;SDS011;7789;51.364;12.358;2022-11-03T06:49:56;9.27;;;1.93;;
15381;SDS011;7789;51.364;12.358;2022-11-03T06:55:07;6.60;;;1.90;;
15381;SDS011;7789;51.364;12.358;2022-11-03T07:00:23;10.93;;;2.53;;
15381;SDS011;7789;51.364;12.358;2022-11-03T07:05:37;7.30;;;2.00;;
15381;SDS011;7789;51.364;12.358;2022-11-03T07:10:40;6.87;;;1.73;;
15381;SDS011;7789;51.364;12.358;2022-11-03T07:15:44;8.60;;;2.40;;
15381;SDS011;7789;51.364;12.358;2022-11-03T07:20:49;4.70;;;1.93;;
15381;SDS011;7789;51.364;12.358;2022-11-03T07:25:54;9.97;;;2.27;;
15381;SDS011;7789;51.364;12.358;2022-11-03T07:31:00;8.47;;;2.27;;
15381;SDS011;7789;51.364;12.358;2022-11-03T07:36:18;5.53;;;2.00;;
15381;SDS011;7789;51.364;12.358;2022-11-03T07:41:24;8.87;;;2.30;;
15381;SDS011;7789;51.364;12.358;2022-11-03T07:46:34;8.13;;;1.70;;
15381;SDS011;7789;51.364;12.358;2022-11-03T07:51:39;6.70;;;2.20;;
15381;SDS011;7789;51.364;12.358;2022-11-03T07:56:44;8.80;;;2.33;;
15381;SDS011;7789;51.364;12.358;2022-11-03T08:01:49;6.37;;;2.70;;
15381;SDS011;7789;51.364;12.358;2022-11-03T08:06:56;6.77;;;2.07;;
15381;SDS011;7789;51.364;12.358;2022-11-03T08:11:59;6.40;;;2.00;;
15381;SDS011;7789;51.364;12.358;2022-11-03T08:17:02;7.27;;;1.87;;
15381;SDS011;7789;51.364;12.358;2022-11-03T08:22:07;7.53;;;1.57;;
15381;SDS011;7789;51.364;12.358;2022-11-03T08:27:10;4.83;;;2.20;;
15381;SDS011;7789;51.364;12.358;2022-11-03T08:32:13;6.97;;;2.30;;
15381;SDS011;7789;51.364;12.358;2022-11-03T08:37:17;6.23;;;1.90;;
15381;SDS011;7789;51.364;12.358;2022-11-03T08:42:20;6.97;;;1.40;;
15381;SDS011;7789;51.364;12.358;2022-11-03T08:47:23;6.07;;;1.60;;
15381;SDS011;7789;51.364;12.358;2022-11-03T08:52:28;5.17;;;1.53;;
15381;SDS011;7789;51.364;12.358;2022-11-03T08:57:31;8.13;;;1.93;;
15381;SDS011;7789;51.364;12.358;2022-11-03T09:02:34;6.87;;;2.10;;
15381;SDS011;7789;51.364;12.358;2022-11-03T09:07:39;5.25;;;1.85;;
15381;SDS011;7789;51.364;12.358;2022-11-03T09:13:02;7.40;;;2.10;;
15381;SDS011;7789;51.364;12.358;2022-11-03T09:18:06;7.70;;;1.50;;
15381;SDS011;7789;51.364;12.358;2022-11-03T09:23:11;3.30;;;1.40;;
15381;SDS011;7789;51.364;12.358;2022-11-03T09:28:15;5.97;;;1.58;;
15381;SDS011;7789;51.364;12.358;2022-11-03T09:33:18;5.20;;;1.67;;
15381;SDS011;7789;51.364;12.358;2022-11-03T09:38:22;5.70;;;2.13;;
15381;SDS011;7789;51.364;12.358;2022-11-03T09:43:25;5.85;;;1.60;;
15381;SDS011;7789;51.364;12.358;2022-11-03T09:48:28;6.63;;;1.73;;
15381;SDS011;7789;51.364;12.358;2022-11-03T09:53:33;8.88;;;3.17;;
15381;SDS011;7789;51.364;12.358;2022-11-03T09:58:36;5.30;;;1.60;;
15381;SDS011;7789;51.364;12.358;2022-11-03T10:03:39;9.73;;;1.67;;
15381;SDS011;7789;51.364;12.358;2022-11-03T10:08:44;6.90;;;1.98;;
15381;SDS011;7789;51.364;12.358;2022-11-03T10:13:49;4.82;;;1.30;;
15381;SDS011;7789;51.364;12.358;2022-11-03T10:18:56;5.03;;;1.80;;
15381;SDS011;7789;51.364;12.358;2022-11-03T10:24:03;4.25;;;1.58;;
15381;SDS011;7789;51.364;12.358;2022-11-03T10:29:07;5.18;;;1.90;;
15381;SDS011;7789;51.364;12.358;2022-11-03T10:34:26;6.93;;;1.67;;
15381;SDS011;7789;51.364;12.358;2022-11-03T10:39:36;4.40;;;1.10;;
15381;SDS011;7789;51.364;12.358;2022-11-03T10:44:39;4.57;;;1.30;;
15381;SDS011;7789;51.364;12.358;2022-11-03T10:49:42;6.45;;;1.65;;
15381;SDS011;7789;51.364;12.358;2022-11-03T10:54:47;6.28;;;1.30;;
15381;SDS011;7789;51.364;12.358;2022-11-03T10:59:51;3.92;;;1.27;;
15381;SDS011;7789;51.364;12.358;2022-11-03T11:04:56;6.45;;;1.50;;
15381;SDS011;7789;51.364;12.358;2022-11-03T11:10:05;5.28;;;1.60;;
15381;SDS011;7789;51.364;12.358;2022-11-03T11:20:40;5.43;;;1.50;;
15381;SDS011;7789;51.364;12.358;2022-11-03T11:37:31;4.80;;;1.75;;
15381;SDS011;7789;51.364;12.358;2022-11-03T11:42:41;4.20;;;1.38;;
15381;SDS011;7789;51.364;12.358;2022-11-03T11:48:23;4.15;;;1.52;;
15381;SDS011;7789;51.364;12.358;2022-11-03T11:53:26;7.18;;;1.80;;
15381;SDS011;7789;51.364;12.358;2022-11-03T11:58:41;4.68;;;1.50;;
15381;SDS011;7789;51.364;12.358;2022-11-03T12:03:46;4.63;;;1.60;;
15381;SDS011;7789;51.364;12.358;2022-11-03T12:08:51;5.18;;;1.40;;
15381;SDS011;7789;51.364;12.358;2022-11-03T12:14:18;4.47;;;1.55;;
15381;SDS011;7789;51.364;12.358;2022-11-03T12:19:33;4.45;;;1.40;;
15381;SDS011;7789;51.364;12.358;2022-11-03T12:24:49;4.78;;;1.40;;
15381;SDS011;7789;51.364;12.358;2022-11-03T12:29:55;7.13;;;1.50;;
15381;SDS011;7789;51.364;12.358;2022-11-03T12:34:59;4.35;;;1.50;;
15381;SDS011;7789;51.364;12.358;2022-11-03T12:40:03;3.63;;;1.42;;
15381;SDS011;7789;51.364;12.358;2022-11-03T12:45:09;4.63;;;1.73;;
15381;SDS011;7789;51.364;12.358;2022-11-03T12:50:14;4.32;;;1.23;;
15381;SDS011;7789;51.364;12.358;2022-11-03T12:55:17;3.60;;;1.38;;
15381;SDS011;7789;51.364;12.358;2022-11-03T13:00:22;4.88;;;1.50;;
15381;SDS011;7789;51.364;12.358;2022-11-03T13:05:25;7.93;;;1.38;;
15381;SDS011;7789;51.364;12.358;2022-11-03T13:10:28;3.53;;;1.35;;
15381;SDS011;7789;51.364;12.358;2022-11-03T13:15:32;4.65;;;1.48;;
15381;SDS011;7789;51.364;12.358;2022-11-03T13:20:36;3.95;;;1.63;;
15381;SDS011;7789;51.364;12.358;2022-11-03T13:25:44;3.45;;;1.70;;
15381;SDS011;7789;51.364;12.358;2022-11-03T13:30:54;3.95;;;1.77;;
15381;SDS011;7789;51.364;12.358;2022-11-03T13:35:57;5.78;;;1.60;;
15381;SDS011;7789;51.364;12.358;2022-11-03T13:41:01;2.70;;;1.50;;
15381;SDS011;7789;51.364;12.358;2022-11-03T13:46:11;9.50;;;1.63;;
15381;SDS011;7789;51.364;12.358;2022-11-03T13:51:14;10.30;;;1.83;;
15381;SDS011;7789;51.364;12.358;2022-11-03T13:56:19;4.50;;;1.77;;
15381;SDS011;7789;51.364;12.358;2022-11-03T14:01:24;3.85;;;1.50;;
15381;SDS011;7789;51.364;12.358;2022-11-03T14:06:28;8.02;;;2.20;;
15381;SDS011;7789;51.364;12.358;2022-11-03T14:11:31;5.43;;;1.98;;
15381;SDS011;7789;51.364;12.358;2022-11-03T14:16:53;6.65;;;2.03;;
15381;SDS011;7789;51.364;12.358;2022-11-03T14:21:57;9.23;;;2.17;;
15381;SDS011;7789;51.364;12.358;2022-11-03T14:27:00;8.80;;;1.83;;
15381;SDS011;7789;51.364;12.358;2022-11-03T14:32:05;4.13;;;2.20;;
15381;SDS011;7789;51.364;12.358;2022-11-03T14:37:08;10.13;;;2.00;;
15381;SDS011;7789;51.364;12.358;2022-11-03T14:42:12;5.57;;;1.80;;
15381;SDS011;7789;51.364;12.358;2022-11-03T14:47:18;7.68;;;2.20;;
15381;SDS011;7789;51.364;12.358;2022-11-03T14:52:23;7.53;;;2.30;;
15381;SDS011;7789;51.364;12.358;2022-11-03T14:57:26;3.80;;;1.60;;
15381;SDS011;7789;51.364;12.358;2022-11-03T15:02:31;3.65;;;1.70;;
15381;SDS011;7789;51.364;12.358;2022-11-03T15:07:34;5.05;;;2.22;;
15381;SDS011;7789;51.364;12.358;2022-11-03T15:12:37;5.13;;;2.15;;
15381;SDS011;7789;51.364;12.358;2022-11-03T15:17:42;11.68;;;2.15;;
15381;SDS011;7789;51.364;12.358;2022-11-03T15:22:45;5.90;;;2.00;;
15381;SDS011;7789;51.364;12.358;2022-11-03T15:28:09;8.30;;;3.45;;
15381;SDS011;7789;51.364;12.358;2022-11-03T15:33:14;6.82;;;2.00;;
15381;SDS011;7789;51.364;12.358;2022-11-03T15:38:17;5.65;;;2.20;;
15381;SDS011;7789;51.364;12.358;2022-11-03T15:43:21;4.90;;;2.53;;
15381;SDS011;7789;51.364;12.358;2022-11-03T15:48:25;8.88;;;2.35;;
15381;SDS011;7789;51.364;12.358;2022-11-03T15:53:34;6.40;;;2.00;;
15381;SDS011;7789;51.364;12.358;2022-11-03T15:58:37;5.35;;;2.00;;
15381;SDS011;7789;51.364;12.358;2022-11-03T16:03:42;10.88;;;2.08;;
15381;SDS011;7789;51.364;12.358;2022-11-03T16:08:45;5.03;;;2.17;;
15381;SDS011;7789;51.364;12.358;2022-11-03T16:13:48;4.93;;;1.92;;
15381;SDS011;7789;51.364;12.358;2022-11-03T16:18:53;8.52;;;2.10;;
15381;SDS011;7789;51.364;12.358;2022-11-03T16:23:56;5.57;;;2.13;;
15381;SDS011;7789;51.364;12.358;2022-11-03T16:28:59;5.18;;;2.22;;
15381;SDS011;7789;51.364;12.358;2022-11-03T16:34:04;5.88;;;2.35;;
15381;SDS011;7789;51.364;12.358;2022-11-03T16:39:07;5.45;;;2.78;;
15381;SDS011;7789;51.364;12.358;2022-11-03T16:44:11;7.13;;;2.40;;
15381;SDS011;7789;51.364;12.358;2022-11-03T16:49:16;4.53;;;2.28;;
15381;SDS011;7789;51.364;12.358;2022-11-03T16:54:19;6.55;;;2.83;;
15381;SDS011;7789;51.364;12.358;2022-11-03T16:59:23;6.20;;;2.38;;
15381;SDS011;7789;51.364;12.358;2022-11-03T17:04:28;6.55;;;2.78;;
15381;SDS011;7789;51.364;12.358;2022-11-03T17:09:31;8.68;;;3.70;;
15381;SDS011;7789;51.364;12.358;2022-11-03T17:14:34;4.93;;;3.20;;
15381;SDS011;7789;51.364;12.358;2022-11-03T17:19:39;9.82;;;3.90;;
15381;SDS011;7789;51.364;12.358;2022-11-03T17:24:42;6.85;;;3.85;;
15381;SDS011;7789;51.364;12.358;2022-11-03T17:29:46;9.25;;;3.90;;
15381;SDS011;7789;51.364;12.358;2022-11-03T17:34:52;7.75;;;3.75;;
15381;SDS011;7789;51.364;12.358;2022-11-03T17:39:56;8.27;;;3.83;;
15381;SDS011;7789;51.364;12.358;2022-11-03T17:44:59;8.60;;;4.30;;
15381;SDS011;7789;51.364;12.358;2022-11-03T17:50:04;6.35;;;3.78;;
15381;SDS011;7789;51.364;12.358;2022-11-03T17:55:12;8.05;;;4.07;;
15381;SDS011;7789;51.364;12.358;2022-11-03T18:00:19;9.07;;;4.68;;
15381;SDS011;7789;51.364;12.358;2022-11-03T18:05:25;8.00;;;4.20;;
15381;SDS011;7789;51.364;12.358;2022-11-03T18:10:31;8.95;;;4.15;;
15381;SDS011;7789;51.364;12.358;2022-11-03T18:15:37;8.75;;;4.07;;
15381;SDS011;7789;51.364;12.358;2022-11-03T18:20:44;7.95;;;3.85;;
15381;SDS011;7789;51.364;12.358;2022-11-03T18:25:54;5.78;;;3.88;;
15381;SDS011;7789;51.364;12.358;2022-11-03T18:30:57;8.38;;;4.25;;
15381;SDS011;7789;51.364;12.358;2022-11-03T18:36:04;7.20;;;3.97;;
15381;SDS011;7789;51.364;12.358;2022-11-03T18:41:08;7.18;;;4.13;;
15381;SDS011;7789;51.364;12.358;2022-11-03T18:46:36;12.15;;;9.05;;
15381;SDS011;7789;51.364;12.358;2022-11-03T18:51:42;10.38;;;4.60;;
15381;SDS011;7789;51.364;12.358;2022-11-03T18:56:50;11.15;;;4.82;;
15381;SDS011;7789;51.364;12.358;2022-11-03T19:01:54;8.27;;;4.30;;
15381;SDS011;7789;51.364;12.358;2022-11-03T19:06:59;8.15;;;4.50;;
15381;SDS011;7789;51.364;12.358;2022-11-03T19:12:04;6.63;;;4.23;;
15381;SDS011;7789;51.364;12.358;2022-11-03T19:17:10;7.65;;;4.13;;
15381;SDS011;7789;51.364;12.358;2022-11-03T19:22:26;8.23;;;4.38;;
15381;SDS011;7789;51.364;12.358;2022-11-03T19:27:29;8.82;;;4.55;;
15381;SDS011;7789;51.364;12.358;2022-11-03T19:32:36;5.85;;;4.07;;
15381;SDS011;7789;51.364;12.358;2022-11-03T19:37:44;8.57;;;5.13;;
15381;SDS011;7789;51.364;12.358;2022-11-03T19:42:49;7.03;;;4.23;;
15381;SDS011;7789;51.364;12.358;2022-11-03T19:47:56;10.07;;;4.93;;
15381;SDS011;7789;51.364;12.358;2022-11-03T19:53:23;8.77;;;5.00;;
15381;SDS011;7789;51.364;12.358;2022-11-03T19:58:28;9.63;;;4.73;;
15381;SDS011;7789;51.364;12.358;2022-11-03T20:03:31;7.30;;;4.50;;
15381;SDS011;7789;51.364;12.358;2022-11-03T20:08:36;7.23;;;4.37;;
15381;SDS011;7789;51.364;12.358;2022-11-03T20:13:40;6.83;;;4.73;;
15381;SDS011;7789;51.364;12.358;2022-11-03T20:18:45;8.07;;;5.03;;
15381;SDS011;7789;51.364;12.358;2022-11-03T20:23:50;9.27;;;4.27;;
15381;SDS011;7789;51.364;12.358;2022-11-03T20:28:53;9.10;;;5.57;;
15381;SDS011;7789;51.364;12.358;2022-11-03T20:33:57;7.93;;;4.87;;
15381;SDS011;7789;51.364;12.358;2022-11-03T20:39:02;11.67;;;5.60;;
15381;SDS011;7789;51.364;12.358;2022-11-03T20:44:05;8.87;;;5.67;;
15381;SDS011;7789;51.364;12.358;2022-11-03T20:49:10;11.93;;;6.40;;
15381;SDS011;7789;51.364;12.358;2022-11-03T20:54:15;13.63;;;6.77;;
15381;SDS011;7789;51.364;12.358;2022-11-03T20:59:19;10.23;;;6.53;;
15381;SDS011;7789;51.364;12.358;2022-11-03T21:04:25;8.70;;;5.93;;
15381;SDS011;7789;51.364;12.358;2022-11-03T21:09:31;10.00;;;6.37;;
15381;SDS011;7789;51.364;12.358;2022-11-03T21:14:34;12.43;;;6.60;;
15381;SDS011;7789;51.364;12.358;2022-11-03T21:19:37;8.03;;;5.70;;
15381;SDS011;7789;51.364;12.358;2022-11-03T21:24:59;10.20;;;6.60;;
15381;SDS011;7789;51.364;12.358;2022-11-03T21:30:03;10.87;;;6.60;;
15381;SDS011;7789;51.364;12.358;2022-11-03T21:35:08;9.30;;;6.13;;
15381;SDS011;7789;51.364;12.358;2022-11-03T21:40:17;8.13;;;6.03;;
15381;SDS011;7789;51.364;12.358;2022-11-03T21:45:20;13.83;;;7.30;;
15381;SDS011;7789;51.364;12.358;2022-11-03T21:50:23;9.03;;;6.73;;
15381;SDS011;7789;51.364;12.358;2022-11-03T21:55:28;9.43;;;6.23;;
15381;SDS011;7789;51.364;12.358;2022-11-03T22:00:31;10.70;;;7.20;;
15381;SDS011;7789;51.364;12.358;2022-11-03T22:05:35;11.77;;;6.90;;
15381;SDS011;7789;51.364;12.358;2022-11-03T22:10:39;10.87;;;6.30;;
15381;SDS011;7789;51.364;12.358;2022-11-03T22:15:43;12.03;;;7.27;;
15381;SDS011;7789;51.364;12.358;2022-11-03T22:21:04;10.43;;;7.27;;
15381;SDS011;7789;51.364;12.358;2022-11-03T22:26:26;13.07;;;7.50;;
15381;SDS011;7789;51.364;12.358;2022-11-03T22:31:46;11.27;;;7.77;;
15381;SDS011;7789;51.364;12.358;2022-11-03T22:36:49;11.17;;;7.47;;
15381;SDS011;7789;51.364;12.358;2022-11-03T22:41:54;10.60;;;7.60;;
15381;SDS011;7789;51.364;12.358;2022-11-03T22:47:14;10.30;;;7.97;;
15381;SDS011;7789;51.364;12.358;2022-11-03T22:52:19;9.70;;;7.50;;
15381;SDS011;7789;51.364;12.358;2022-11-03T22:57:23;10.37;;;7.77;;
15381;SDS011;7789;51.364;12.358;2022-11-03T23:02:27;11.53;;;8.00;;
15381;SDS011;7789;51.364;12.358;2022-11-03T23:07:30;10.17;;;8.07;;
15381;SDS011;7789;51.364;12.358;2022-11-03T23:12:40;12.10;;;8.50;;
15381;SDS011;7789;51.364;12.358;2022-11-03T23:17:43;9.67;;;7.80;;
15381;SDS011;7789;51.364;12.358;2022-11-03T23:23:04;11.97;;;8.00;;
15381;SDS011;7789;51.364;12.358;2022-11-03T23:28:09;11.47;;;8.33;;
15381;SDS011;7789;51.364;12.358;2022-11-03T23:33:12;11.60;;;7.53;;
15381;SDS011;7789;51.364;12.358;2022-11-03T23:38:15;10.30;;;7.33;;
15381;SDS011;7789;51.364;12.358;2022-11-03T23:43:19;13.03;;;8.33;;
15381;SDS011;7789;51.364;12.358;2022-11-03T23:48:22;11.87;;;7.57;;
15381;SDS011;7789;51.364;12.358;2022-11-03T23:53:48;12.57;;;7.20;;
15381;SDS011;7789;51.364;12.358;2022-11-03T23:58:53;11.97;;;7.07;;
